Atwood, Tennessee
Current Conditions -  °F | °C
As of 12:53 PM on Monday 20 Oct 2014 (Local Time) from KMKL Reporting Station
Few Clouds Few Clouds  
Wind Chill: 19°   Ceiling: Unl
Heat Index: 19°   Visibility: 10mi
Dew Point:   Wind: 7mph
Humidity: 52%   Direction: 240°WSW
Pressure: 30.06"   Gusts: NA
Location:  35.97°N, 88.68°W
Report Text: KMKL 201753Z 24006KT 10SM FEW100 19/09 A3006 RMK AO2 SLP176 60000 T01940094 10194 20072 58015
Loading
Personal Weather Stations






























Interactive Weather Map
Tropical Storm Tracking
New forecast layout! Learn more

10-Day Weather Forecast

Advertisements
Track Severe Weather on mobile